createdAt,value
2022-09-03T00:00:13.403Z,18.30
2022-09-03T00:02:52.741Z,18.20
2022-09-03T00:05:25.862Z,18.51
2022-09-03T00:08:14.462Z,18.35
2022-09-03T00:11:03.410Z,18.01
2022-09-03T00:13:35.132Z,18.12
2022-09-03T00:16:05.554Z,18.02
2022-09-03T00:18:34.783Z,18.06
2022-09-03T00:21:11.290Z,17.92
2022-09-03T00:23:41.262Z,17.83
2022-09-03T00:26:13.645Z,17.85
2022-09-03T00:28:46.169Z,17.91
2022-09-03T00:31:25.056Z,17.76
2022-09-03T00:33:56.032Z,17.63
2022-09-03T00:36:33.941Z,17.70
2022-09-03T00:39:00.388Z,17.72
2022-09-03T00:41:46.459Z,17.64
2022-09-03T00:44:37.630Z,17.61
2022-09-03T00:47:15.382Z,17.73
2022-09-03T00:49:41.914Z,17.67
2022-09-03T00:52:33.815Z,17.60
2022-09-03T00:55:19.295Z,17.50
2022-09-03T00:58:34.307Z,17.57
2022-09-03T01:01:10.653Z,17.54
2022-09-03T01:03:58.422Z,17.58
2022-09-03T01:06:35.281Z,17.26
2022-09-03T01:09:12.475Z,17.55
2022-09-03T01:11:50.973Z,17.46
2022-09-03T01:14:34.504Z,17.24
2022-09-03T01:17:12.304Z,17.45
2022-09-03T01:20:02.164Z,17.12
2022-09-03T01:22:53.182Z,17.44
2022-09-03T01:25:22.662Z,17.31
2022-09-03T01:28:01.083Z,17.29
2022-09-03T01:30:30.521Z,17.02
2022-09-03T01:33:19.838Z,16.93
2022-09-03T01:35:49.034Z,17.14
2022-09-03T01:38:47.168Z,17.17
2022-09-03T01:42:04.529Z,17.20
2022-09-03T01:44:52.978Z,17.03
2022-09-03T01:47:37.657Z,16.82
2022-09-03T01:50:16.178Z,16.99
2022-09-03T01:52:54.884Z,17.00
2022-09-03T01:55:21.826Z,16.79
2022-09-03T01:57:53.630Z,16.80
2022-09-03T02:00:20.523Z,16.50
2022-09-03T02:02:49.673Z,16.78
2022-09-03T02:05:20.045Z,16.60
2022-09-03T02:07:49.461Z,16.73
2022-09-03T02:10:25.842Z,16.57
2022-09-03T02:12:56.722Z,16.60
2022-09-03T02:15:26.029Z,16.63
2022-09-03T02:17:58.882Z,16.56
2022-09-03T02:20:28.466Z,16.51
2022-09-03T02:22:57.362Z,16.44
2022-09-03T02:25:30.765Z,16.38
2022-09-03T02:27:57.659Z,16.47
2022-09-03T02:30:24.797Z,16.46
2022-09-03T02:32:51.209Z,16.25
2022-09-03T02:35:18.249Z,15.91
2022-09-03T02:37:44.763Z,16.14
2022-09-03T02:40:11.337Z,16.12
2022-09-03T02:42:37.956Z,16.04
2022-09-03T02:45:21.164Z,15.94
2022-09-03T02:47:51.986Z,16.14
2022-09-03T02:50:18.428Z,16.21
2022-09-03T02:52:44.957Z,16.12
2022-09-03T02:55:11.376Z,16.06
2022-09-03T02:57:37.917Z,15.80
2022-09-03T03:00:05.004Z,15.91
2022-09-03T03:02:31.483Z,16.04
2022-09-03T03:04:58.073Z,15.80
2022-09-03T03:07:24.741Z,16.07
2022-09-03T03:09:51.320Z,15.92
2022-09-03T03:12:17.763Z,15.86
2022-09-03T03:14:44.270Z,15.78
2022-09-03T03:17:10.734Z,15.73
2022-09-03T03:19:37.179Z,15.55
2022-09-03T03:22:03.681Z,15.79
2022-09-03T03:24:30.126Z,15.72
2022-09-03T03:26:56.862Z,15.79
2022-09-03T03:29:23.721Z,15.53
2022-09-03T03:31:50.174Z,15.64
2022-09-03T03:34:16.585Z,15.56
2022-09-03T03:36:43.032Z,15.68
2022-09-03T03:39:11.202Z,15.37
2022-09-03T03:41:37.922Z,15.49
2022-09-03T03:44:06.802Z,15.48
2022-09-03T03:46:38.522Z,15.63
2022-09-03T03:49:06.160Z,15.51
2022-09-03T03:51:33.170Z,15.48
2022-09-03T03:54:03.207Z,15.53
2022-09-03T03:56:31.362Z,15.39
2022-09-03T03:58:59.239Z,15.21
2022-09-03T04:01:27.285Z,15.32
2022-09-03T04:03:58.317Z,15.36
2022-09-03T04:06:25.220Z,15.36
2022-09-03T04:08:51.714Z,15.10
2022-09-03T04:11:21.368Z,15.21
2022-09-03T04:13:49.475Z,15.35
2022-09-03T04:16:21.109Z,15.34
2022-09-03T04:18:48.064Z,15.04
2022-09-03T04:21:20.778Z,15.24
2022-09-03T04:23:49.123Z,15.16
2022-09-03T04:26:19.231Z,15.31
2022-09-03T04:28:45.788Z,14.94
2022-09-03T04:31:14.699Z,15.23
2022-09-03T04:33:42.166Z,15.07
2022-09-03T04:36:19.521Z,15.14
2022-09-03T04:38:48.153Z,15.15
2022-09-03T04:41:16.931Z,15.21
2022-09-03T04:43:43.482Z,14.89
2022-09-03T04:46:16.087Z,14.96
2022-09-03T04:48:43.532Z,14.98
2022-09-03T04:51:15.156Z,14.75
2022-09-03T04:53:44.344Z,15.12
2022-09-03T04:56:16.993Z,14.95
2022-09-03T04:58:43.526Z,14.77
2022-09-03T05:01:21.115Z,14.83
2022-09-03T05:03:48.403Z,14.99
2022-09-03T05:06:15.042Z,14.71
2022-09-03T05:08:41.473Z,14.99
2022-09-03T05:11:08.035Z,14.93
2022-09-03T05:13:35.865Z,15.03
2022-09-03T05:16:07.305Z,15.09
2022-09-03T05:18:34.892Z,15.25
2022-09-03T05:21:12.189Z,15.35
2022-09-03T05:23:41.409Z,15.33
2022-09-03T05:26:11.492Z,15.18
2022-09-03T05:28:40.293Z,15.06
2022-09-03T05:31:12.209Z,15.18
2022-09-03T05:33:40.835Z,15.32
2022-09-03T05:36:09.705Z,15.33
2022-09-03T05:38:36.289Z,15.43
2022-09-03T05:41:08.054Z,15.42
2022-09-03T05:43:35.464Z,15.29
2022-09-03T05:46:07.910Z,15.43
2022-09-03T05:48:36.111Z,15.40
2022-09-03T05:51:14.519Z,15.59
2022-09-03T05:53:40.922Z,15.60
2022-09-03T05:56:13.327Z,15.79
2022-09-03T05:58:41.530Z,15.74
2022-09-03T06:01:14.904Z,15.61
2022-09-03T06:03:43.648Z,15.71
2022-09-03T06:06:11.413Z,15.83
2022-09-03T06:08:37.866Z,15.80
2022-09-03T06:11:04.751Z,15.88
2022-09-03T06:13:32.576Z,16.14
2022-09-03T06:16:00.930Z,16.83
2022-09-03T06:18:28.158Z,17.62
2022-09-03T06:20:56.984Z,17.44
2022-09-03T06:23:24.727Z,17.52
2022-09-03T06:26:05.700Z,17.24
2022-09-03T06:28:37.259Z,17.16
2022-09-03T06:31:05.859Z,17.63
2022-09-03T06:33:34.201Z,17.52
2022-09-03T06:36:05.664Z,17.57
2022-09-03T06:38:36.290Z,17.97
2022-09-03T06:41:05.947Z,17.37
2022-09-03T06:43:34.768Z,17.89
2022-09-03T06:46:11.599Z,17.57
2022-09-03T06:48:38.802Z,17.76
2022-09-03T06:51:07.665Z,18.09
2022-09-03T06:53:36.990Z,18.00
2022-09-03T06:56:07.635Z,19.17
2022-09-03T06:58:37.280Z,19.01
2022-09-03T07:01:10.286Z,19.21
2022-09-03T07:03:38.136Z,19.99
2022-09-03T07:06:07.298Z,20.33
2022-09-03T07:08:34.486Z,20.07
2022-09-03T07:11:07.376Z,20.44
2022-09-03T07:13:33.830Z,19.50
2022-09-03T07:16:08.906Z,20.06
2022-09-03T07:18:35.916Z,20.28
2022-09-03T07:21:08.366Z,20.36
2022-09-03T07:23:36.256Z,19.59
2022-09-03T07:26:06.853Z,19.20
2022-09-03T07:28:35.765Z,19.28
2022-09-03T07:31:08.320Z,19.53
2022-09-03T07:33:34.831Z,19.27
2022-09-03T07:36:06.576Z,19.24
2022-09-03T07:38:34.953Z,19.27
2022-09-03T07:41:04.806Z,19.12
2022-09-03T07:43:36.273Z,19.52
2022-09-03T07:46:03.342Z,20.01
2022-09-03T07:48:35.374Z,19.61
2022-09-03T07:51:03.843Z,20.28
2022-09-03T07:53:30.280Z,20.27
2022-09-03T07:56:08.239Z,20.22
2022-09-03T07:58:36.174Z,20.38
2022-09-03T08:01:07.843Z,20.33
2022-09-03T08:03:39.111Z,20.28
2022-09-03T08:06:07.700Z,20.28
2022-09-03T08:08:36.173Z,20.28
2022-09-03T08:11:10.202Z,20.34
2022-09-03T08:13:48.058Z,20.48
2022-09-03T08:16:18.171Z,20.28
2022-09-03T08:18:45.160Z,20.90
2022-09-03T08:21:16.260Z,20.96
2022-09-03T08:23:51.184Z,23.37
2022-09-03T08:26:19.260Z,23.50
2022-09-03T08:28:46.075Z,22.65
2022-09-03T08:31:15.416Z,23.72
2022-09-03T08:33:45.483Z,24.19
2022-09-03T08:36:14.510Z,24.92
2022-09-03T08:38:42.460Z,25.40
2022-09-03T08:41:14.860Z,24.19
2022-09-03T08:44:04.236Z,24.10
2022-09-03T08:46:49.384Z,25.67
2022-09-03T08:49:39.193Z,25.29
2022-09-03T08:52:13.293Z,25.39
2022-09-03T08:54:39.899Z,24.69
2022-09-03T08:57:08.689Z,24.27
2022-09-03T08:59:35.334Z,24.34
2022-09-03T09:02:19.299Z,24.90
2022-09-03T09:05:02.806Z,23.62
2022-09-03T09:07:32.677Z,23.23
2022-09-03T09:10:46.977Z,23.13
2022-09-03T09:13:34.331Z,23.60
2022-09-03T09:16:09.963Z,24.61
2022-09-03T09:18:54.683Z,25.69
2022-09-03T09:21:33.903Z,25.50
2022-09-03T09:24:09.749Z,25.40
2022-09-03T09:26:36.175Z,24.68
2022-09-03T09:29:09.467Z,25.45
2022-09-03T09:31:38.754Z,23.99
2022-09-03T09:34:07.119Z,24.36
2022-09-03T09:36:51.980Z,26.04
2022-09-03T09:39:18.905Z,28.03
2022-09-03T09:42:05.235Z,27.45
2022-09-03T09:44:31.653Z,25.34
2022-09-03T09:47:21.083Z,25.12
2022-09-03T09:49:56.747Z,26.26
2022-09-03T09:52:25.968Z,24.42
2022-09-03T09:54:54.618Z,24.79
2022-09-03T09:57:25.773Z,24.25
2022-09-03T10:00:06.508Z,24.91
2022-09-03T10:02:35.594Z,25.25
2022-09-03T10:05:14.664Z,25.15
2022-09-03T10:07:41.601Z,25.40
2022-09-03T10:10:16.190Z,25.51
2022-09-03T10:12:47.478Z,26.30
2022-09-03T10:15:20.099Z,26.17
2022-09-03T10:17:53.314Z,26.03
2022-09-03T10:20:40.016Z,25.78
2022-09-03T10:23:10.027Z,25.77
2022-09-03T10:25:58.141Z,25.10
2022-09-03T10:28:29.445Z,25.02
2022-09-03T10:31:03.465Z,25.61
2022-09-03T10:33:38.927Z,24.92
2022-09-03T10:36:18.614Z,26.71
2022-09-03T10:38:52.585Z,27.19
2022-09-03T10:41:42.394Z,27.12
2022-09-03T10:44:22.803Z,25.47
2022-09-03T10:46:52.031Z,25.19
2022-09-03T10:49:53.875Z,25.65
2022-09-03T10:52:26.868Z,25.31
2022-09-03T10:55:13.479Z,26.35
2022-09-03T10:57:54.527Z,25.72
2022-09-03T11:00:21.246Z,26.00
2022-09-03T11:03:25.733Z,26.21
2022-09-03T11:05:52.165Z,25.43
2022-09-03T11:08:28.396Z,25.25
2022-09-03T11:11:02.048Z,25.17
2022-09-03T11:13:36.787Z,25.72
2022-09-03T11:16:28.409Z,25.60
2022-09-03T11:19:04.791Z,25.80
2022-09-03T11:21:34.904Z,25.52
2022-09-03T11:24:14.615Z,25.41
2022-09-03T11:26:45.102Z,25.65
2022-09-03T11:29:14.558Z,25.74
2022-09-03T11:32:02.303Z,25.81
2022-09-03T11:34:32.990Z,26.49
2022-09-03T11:37:20.112Z,26.01
2022-09-03T11:40:05.192Z,25.17
2022-09-03T11:42:37.920Z,25.53
2022-09-03T11:45:27.989Z,25.69
2022-09-03T11:47:54.874Z,26.05
2022-09-03T11:50:26.425Z,26.16
2022-09-03T11:52:56.142Z,26.67
2022-09-03T11:55:29.100Z,27.32
2022-09-03T11:57:55.896Z,27.55
2022-09-03T12:00:22.487Z,27.89
2022-09-03T12:02:58.770Z,26.85
2022-09-03T12:06:06.884Z,27.44
2022-09-03T12:09:17.567Z,27.10
2022-09-03T12:12:05.589Z,26.35
2022-09-03T12:14:53.822Z,26.45
2022-09-03T12:17:44.207Z,26.76
2022-09-03T12:20:15.939Z,26.47
2022-09-03T12:22:42.718Z,26.33
2022-09-03T12:25:14.568Z,26.46
2022-09-03T12:27:45.170Z,26.91
2022-09-03T12:30:18.763Z,26.97
2022-09-03T12:32:45.212Z,26.69
2022-09-03T12:38:09.065Z,27.05
2022-09-03T12:43:38.409Z,26.69
2022-09-03T12:46:13.771Z,26.67
2022-09-03T12:49:29.076Z,26.74
2022-09-03T12:51:50.732Z,27.24
2022-09-03T12:54:19.830Z,27.10
2022-09-03T12:56:55.498Z,27.03
2022-09-03T12:59:25.399Z,27.34
2022-09-03T13:02:00.335Z,26.98
2022-09-03T13:04:32.428Z,27.32
2022-09-03T13:07:22.012Z,27.00
2022-09-03T13:09:48.504Z,27.21
2022-09-03T13:12:23.087Z,28.01
2022-09-03T13:14:52.769Z,27.58
2022-09-03T13:17:38.614Z,27.96
2022-09-03T13:20:07.877Z,28.15
2022-09-03T13:23:02.099Z,27.52
2022-09-03T13:25:45.629Z,27.38
2022-09-03T13:28:38.502Z,27.84
2022-09-03T13:31:42.805Z,27.47
2022-09-03T13:34:12.101Z,27.82
2022-09-03T13:37:11.486Z,27.72
2022-09-03T13:40:14.645Z,27.06
2022-09-03T13:42:44.425Z,27.88
2022-09-03T13:45:23.277Z,27.71
2022-09-03T13:47:57.116Z,28.78
2022-09-03T13:50:24.991Z,28.91
2022-09-03T13:53:31.839Z,28.82
2022-09-03T13:56:22.398Z,28.64
2022-09-03T13:59:01.628Z,28.74
2022-09-03T14:01:57.996Z,29.70
2022-09-03T14:04:40.662Z,29.59
2022-09-03T14:07:14.564Z,29.25
2022-09-03T14:09:56.733Z,29.28
2022-09-03T14:12:36.743Z,29.44
2022-09-03T14:15:26.066Z,29.73
2022-09-03T14:18:35.886Z,28.59
2022-09-03T14:21:08.079Z,29.28
2022-09-03T14:23:49.431Z,28.80
2022-09-03T14:26:39.120Z,28.29
2022-09-03T14:29:11.994Z,27.85
2022-09-03T14:32:07.706Z,28.23
2022-09-03T14:34:44.717Z,29.25
2022-09-03T14:37:23.507Z,29.94
2022-09-03T14:40:02.781Z,27.52
2022-09-03T14:42:29.262Z,27.13
2022-09-03T14:45:24.059Z,28.36
2022-09-03T14:48:23.346Z,26.93
2022-09-03T14:51:01.740Z,26.76
2022-09-03T14:53:50.763Z,27.12
2022-09-03T14:56:34.190Z,27.64
2022-09-03T14:59:20.210Z,27.74
2022-09-03T15:01:56.101Z,27.18
2022-09-03T15:04:44.329Z,27.25
2022-09-03T15:07:16.585Z,27.09
2022-09-03T15:09:53.474Z,26.78
2022-09-03T15:12:28.924Z,27.59
2022-09-03T15:14:56.808Z,27.21
2022-09-03T15:17:55.113Z,26.79
2022-09-03T15:20:24.317Z,26.56
2022-09-03T15:23:14.979Z,26.34
2022-09-03T15:25:48.001Z,26.43
2022-09-03T15:28:24.801Z,26.59
2022-09-03T15:31:02.065Z,26.52
2022-09-03T15:33:52.826Z,26.53
2022-09-03T15:36:36.144Z,26.54
2022-09-03T15:39:07.733Z,26.43
2022-09-03T15:41:52.220Z,26.17
2022-09-03T15:44:19.905Z,26.10
2022-09-03T15:47:14.450Z,26.29
2022-09-03T15:50:01.864Z,26.53
2022-09-03T15:52:56.533Z,26.59
2022-09-03T15:55:25.700Z,26.33
2022-09-03T15:58:10.870Z,26.12
2022-09-03T16:01:01.459Z,26.49
2022-09-03T16:03:47.295Z,26.36
2022-09-03T16:06:44.074Z,26.21
2022-09-03T16:09:22.539Z,26.36
2022-09-03T16:12:09.213Z,26.57
2022-09-03T16:14:46.148Z,26.39
2022-09-03T16:17:34.155Z,26.34
2022-09-03T16:20:08.770Z,26.65
2022-09-03T16:22:54.781Z,26.53
2022-09-03T16:25:31.487Z,26.76
2022-09-03T16:28:12.831Z,26.61
2022-09-03T16:31:07.117Z,27.25
2022-09-03T16:33:46.493Z,27.35
2022-09-03T16:36:46.796Z,26.93
2022-09-03T16:39:34.895Z,27.02
2022-09-03T16:42:13.042Z,26.88
2022-09-03T16:44:51.545Z,26.77
2022-09-03T16:47:48.670Z,26.74
2022-09-03T16:50:33.592Z,26.64
2022-09-03T16:53:05.291Z,26.34
2022-09-03T16:55:43.453Z,26.49
2022-09-03T16:58:25.664Z,26.23
2022-09-03T17:01:08.579Z,26.28
2022-09-03T17:03:38.191Z,26.41
2022-09-03T17:06:17.685Z,26.23
2022-09-03T17:09:11.024Z,26.43
2022-09-03T17:12:03.885Z,26.33
2022-09-03T17:15:11.882Z,26.03
2022-09-03T17:18:01.998Z,25.89
2022-09-03T17:20:53.397Z,25.71
2022-09-03T17:23:38.231Z,25.40
2022-09-03T17:26:21.096Z,25.53
2022-09-03T17:28:56.620Z,25.64
2022-09-03T17:31:26.210Z,25.26
2022-09-03T17:34:10.420Z,25.34
2022-09-03T17:36:39.962Z,25.01
2022-09-03T17:39:27.563Z,24.91
2022-09-03T17:42:01.544Z,24.96
2022-09-03T17:44:48.055Z,24.90
2022-09-03T17:48:02.663Z,24.72
2022-09-03T17:50:42.449Z,24.60
2022-09-03T17:53:37.893Z,24.49
2022-09-03T17:56:20.694Z,24.41
2022-09-03T17:58:55.915Z,24.14
2022-09-03T18:01:28.509Z,24.40
2022-09-03T18:04:03.373Z,24.23
2022-09-03T18:06:37.084Z,24.46
2022-09-03T18:09:15.310Z,24.52
2022-09-03T18:11:49.352Z,24.49
2022-09-03T18:14:35.220Z,24.57
2022-09-03T18:17:27.292Z,24.19
2022-09-03T18:20:11.807Z,24.58
2022-09-03T18:22:55.974Z,24.69
2022-09-03T18:25:25.874Z,24.39
2022-09-03T18:27:59.764Z,24.55
2022-09-03T18:30:26.666Z,24.84
2022-09-03T18:32:53.211Z,24.86
2022-09-03T18:35:19.690Z,24.74
2022-09-03T18:37:46.128Z,24.39
2022-09-03T18:40:28.250Z,24.23
2022-09-03T18:43:14.702Z,24.54
2022-09-03T18:49:11.407Z,24.63
2022-09-03T18:51:56.500Z,24.54
2022-09-03T18:55:08.560Z,24.44
2022-09-03T18:57:41.544Z,24.25
2022-09-03T19:00:14.200Z,23.98
2022-09-03T19:03:03.938Z,24.00
2022-09-03T19:06:05.673Z,23.83
2022-09-03T19:08:44.292Z,23.60
2022-09-03T19:11:39.415Z,23.47
2022-09-03T19:14:15.029Z,23.47
2022-09-03T19:16:50.191Z,23.44
2022-09-03T19:19:40.899Z,23.29
2022-09-03T19:22:12.775Z,23.49
2022-09-03T19:24:39.223Z,23.50
2022-09-03T19:27:56.993Z,23.27
2022-09-03T19:30:29.016Z,23.09
2022-09-03T19:32:55.452Z,23.05
2022-09-03T19:35:37.269Z,22.74
2022-09-03T19:38:22.749Z,23.27
2022-09-03T19:41:32.470Z,22.95
2022-09-03T19:44:04.663Z,23.02
2022-09-03T19:46:47.026Z,22.74
2022-09-03T19:49:35.537Z,22.53
2022-09-03T19:52:23.089Z,22.37
2022-09-03T19:54:55.453Z,22.44
2022-09-03T19:57:22.958Z,22.51
2022-09-03T19:59:50.373Z,22.50
2022-09-03T20:02:16.919Z,22.45
2022-09-03T20:04:54.140Z,22.29
2022-09-03T20:07:21.545Z,22.15
2022-09-03T20:09:49.817Z,22.29
2022-09-03T20:12:20.580Z,22.14
2022-09-03T20:14:47.402Z,22.17
2022-09-03T20:17:13.797Z,22.08
2022-09-03T20:19:46.020Z,21.76
2022-09-03T20:22:23.739Z,21.22
2022-09-03T20:24:59.746Z,21.71
2022-09-03T20:28:04.258Z,22.02
2022-09-03T20:30:50.015Z,21.82
2022-09-03T20:33:57.792Z,21.74
2022-09-03T20:36:51.010Z,21.19
2022-09-03T20:39:36.136Z,20.91
2022-09-03T20:42:24.249Z,21.20
2022-09-03T20:45:05.029Z,21.29
2022-09-03T20:47:41.899Z,20.92
2022-09-03T20:50:36.409Z,20.93
2022-09-03T20:53:41.619Z,21.30
2022-09-03T20:56:17.446Z,20.57
2022-09-03T20:58:53.009Z,20.82
2022-09-03T21:01:34.517Z,20.66
2022-09-03T21:04:04.703Z,20.24
2022-09-03T21:07:03.621Z,20.64
2022-09-03T21:09:53.152Z,20.92
2022-09-03T21:12:22.723Z,20.87
2022-09-03T21:15:00.992Z,20.51
2022-09-03T21:17:45.938Z,20.69
2022-09-03T21:20:43.970Z,20.33
2022-09-03T21:23:21.498Z,20.64
2022-09-03T21:26:05.864Z,20.67
2022-09-03T21:28:38.467Z,20.48
2022-09-03T21:31:16.860Z,20.77
2022-09-03T21:33:48.007Z,20.71
2022-09-03T21:36:19.873Z,20.59
2022-09-03T21:38:56.999Z,20.33
2022-09-03T21:41:32.625Z,20.37
2022-09-03T21:44:03.007Z,20.55
2022-09-03T21:46:36.338Z,20.75
2022-09-03T21:49:17.732Z,21.06
2022-09-03T21:51:49.960Z,20.49
2022-09-03T21:54:25.896Z,20.05
2022-09-03T21:57:39.266Z,20.27
2022-09-03T22:00:16.527Z,20.21
2022-09-03T22:02:43.376Z,20.74
2022-09-03T22:05:09.914Z,20.48
2022-09-03T22:07:42.094Z,19.91
2022-09-03T22:10:21.125Z,20.05
2022-09-03T22:13:09.624Z,20.10
2022-09-03T22:15:37.228Z,19.69
2022-09-03T22:18:19.440Z,19.49
2022-09-03T22:20:47.241Z,19.67
2022-09-03T22:23:25.276Z,19.67
2022-09-03T22:26:12.546Z,19.60
2022-09-03T22:28:51.846Z,19.12
2022-09-03T22:31:32.824Z,19.48
2022-09-03T22:34:17.851Z,19.68
2022-09-03T22:36:58.158Z,19.58
2022-09-03T22:39:54.886Z,19.55
2022-09-03T22:42:52.555Z,19.15
2022-09-03T22:45:40.915Z,18.99
2022-09-03T22:48:22.037Z,19.00
2022-09-03T22:51:00.256Z,18.79
2022-09-03T22:54:00.694Z,18.85
2022-09-03T22:56:32.435Z,18.78
2022-09-03T22:59:19.010Z,18.87
2022-09-03T23:01:56.752Z,19.07
2022-09-03T23:04:34.938Z,18.77
2022-09-03T23:07:10.706Z,18.53
2022-09-03T23:09:42.955Z,18.77
2022-09-03T23:12:27.891Z,18.25
2022-09-03T23:14:58.582Z,18.56
2022-09-03T23:20:18.469Z,18.71
2022-09-03T23:22:53.331Z,18.67
2022-09-03T23:25:31.090Z,18.62
2022-09-03T23:28:06.277Z,18.52
2022-09-03T23:30:32.725Z,18.50
2022-09-03T23:33:00.090Z,18.32
2022-09-03T23:35:29.162Z,18.40
2022-09-03T23:38:33.788Z,18.44
2022-09-03T23:41:06.244Z,18.26
2022-09-03T23:44:08.345Z,18.37
2022-09-03T23:46:45.435Z,18.52
2022-09-03T23:49:55.763Z,18.51
2022-09-03T23:52:31.419Z,18.55
2022-09-03T23:55:11.896Z,18.66
2022-09-03T23:57:49.271Z,18.45
